createdAt,value
2022-11-16T00:01:37.253Z,98637.53
2022-11-16T00:04:04.840Z,98639.38
2022-11-16T00:06:32.634Z,98635.06
2022-11-16T00:09:19.089Z,98630.59
2022-11-16T00:11:49.771Z,98632.63
2022-11-16T00:14:17.376Z,98632.66
2022-11-16T00:16:45.096Z,98634.94
2022-11-16T00:19:12.949Z,98630.84
2022-11-16T00:21:43.045Z,98638.41
2022-11-16T00:24:12.856Z,98625.94
2022-11-16T00:26:40.318Z,98631.28
2022-11-16T00:29:14.430Z,98628.63
2022-11-16T00:31:42.408Z,98622.91
2022-11-16T00:34:10.024Z,98632.56
2022-11-16T00:36:37.470Z,98619.84
2022-11-16T00:39:05.100Z,98616.41
2022-11-16T00:41:32.704Z,98616.19
2022-11-16T00:44:00.133Z,98609.03
2022-11-16T00:46:29.168Z,98608.41
2022-11-16T00:48:56.638Z,98603.78
2022-11-16T00:51:24.047Z,98593.31
2022-11-16T00:53:51.716Z,98594.75
2022-11-16T00:56:19.295Z,98596.97
2022-11-16T00:58:46.747Z,98590.03
2022-11-16T01:01:14.607Z,98589.59
2022-11-16T01:03:43.471Z,98591.06
2022-11-16T01:06:13.104Z,98587.41
2022-11-16T01:08:41.959Z,98585.59
2022-11-16T01:11:27.676Z,98583.13
2022-11-16T01:13:55.663Z,98578.63
2022-11-16T01:16:24.482Z,98577.59
2022-11-16T01:18:55.371Z,98570.66
2022-11-16T01:21:24.427Z,98573.53
2022-11-16T01:23:52.564Z,98569.22
2022-11-16T01:26:20.240Z,98567.56
2022-11-16T01:28:47.971Z,98558.56
2022-11-16T01:31:15.664Z,98563.06
2022-11-16T01:33:43.176Z,98559.75
2022-11-16T01:36:27.807Z,98552.41
2022-11-16T01:38:57.531Z,98551.59
2022-11-16T01:41:28.450Z,98558.34
2022-11-16T01:44:00.719Z,98552.44
2022-11-16T01:46:34.336Z,98551.22
2022-11-16T01:49:05.450Z,98552.84
2022-11-16T01:51:34.586Z,98544.28
2022-11-16T01:54:04.471Z,98532.84
2022-11-16T01:56:33.069Z,98531.34
2022-11-16T01:59:12.949Z,98521.94
2022-11-16T02:01:41.055Z,98524.84
2022-11-16T02:04:11.082Z,98525.81
2022-11-16T02:06:56.061Z,98527.28
2022-11-16T02:09:55.205Z,98515.88
2022-11-16T02:12:38.470Z,98518.28
2022-11-16T02:15:13.225Z,98510.97
2022-11-16T02:17:49.676Z,98512.34
2022-11-16T02:20:41.844Z,98513.97
2022-11-16T02:23:25.843Z,98507.59
2022-11-16T02:25:59.995Z,98504.41
2022-11-16T02:28:35.546Z,98499.34
2022-11-16T02:31:07.081Z,98495.25
2022-11-16T02:33:37.136Z,98492.81
2022-11-16T02:36:08.711Z,98492.59
2022-11-16T02:38:38.840Z,98482.56
2022-11-16T02:41:10.092Z,98483.00
2022-11-16T02:43:41.427Z,98485.06
2022-11-16T02:46:13.509Z,98482.81
2022-11-16T02:48:43.855Z,98474.22
2022-11-16T02:51:12.138Z,98475.25
2022-11-16T02:53:43.095Z,98479.16
2022-11-16T02:56:14.180Z,98472.41
2022-11-16T02:58:42.131Z,98471.78
2022-11-16T03:01:14.380Z,98469.56
2022-11-16T03:03:44.348Z,98473.63
2022-11-16T03:06:16.243Z,98474.63
2022-11-16T03:08:47.257Z,98478.94
2022-11-16T03:11:32.455Z,98480.00
2022-11-16T03:14:03.731Z,98477.38
2022-11-16T03:16:35.943Z,98472.66
2022-11-16T03:19:06.104Z,98467.56
2022-11-16T03:21:39.139Z,98475.72
2022-11-16T03:24:08.107Z,98475.97
2022-11-16T03:26:52.335Z,98465.28
2022-11-16T03:29:24.930Z,98469.81
2022-11-16T03:31:58.370Z,98463.84
2022-11-16T03:34:29.404Z,98462.25
2022-11-16T03:36:57.368Z,98468.38
2022-11-16T03:39:26.736Z,98464.09
2022-11-16T03:41:54.615Z,98452.84
2022-11-16T03:44:22.623Z,98448.81
2022-11-16T03:46:50.058Z,98457.78
2022-11-16T03:49:21.845Z,98459.22
2022-11-16T03:51:50.227Z,98460.44
2022-11-16T03:54:17.992Z,98455.31
2022-11-16T03:56:45.413Z,98455.72
2022-11-16T03:59:13.267Z,98456.16
2022-11-16T04:01:44.697Z,98458.19
2022-11-16T04:04:33.714Z,98457.53
2022-11-16T04:07:20.738Z,98444.72
2022-11-16T04:10:13.852Z,98442.25
2022-11-16T04:13:02.275Z,98455.31
2022-11-16T04:15:50.612Z,98450.41
2022-11-16T04:18:36.523Z,98458.38
2022-11-16T04:21:22.987Z,98453.47
2022-11-16T04:24:09.612Z,98455.13
2022-11-16T04:26:56.375Z,98448.97
2022-11-16T04:29:24.604Z,98452.44
2022-11-16T04:32:09.705Z,98444.09
2022-11-16T04:34:54.797Z,98442.03
2022-11-16T04:37:40.022Z,98444.31
2022-11-16T04:40:11.005Z,98444.94
2022-11-16T04:42:38.423Z,98453.50
2022-11-16T04:45:24.239Z,98453.50
2022-11-16T04:47:54.190Z,98448.00
2022-11-16T04:50:25.883Z,98442.88
2022-11-16T04:52:53.340Z,98452.50
2022-11-16T04:55:22.521Z,98445.53
2022-11-16T04:57:51.499Z,98444.50
2022-11-16T05:00:19.711Z,98447.56
2022-11-16T05:02:47.421Z,98443.09
2022-11-16T05:05:15.323Z,98447.38
2022-11-16T05:07:45.431Z,98451.66
2022-11-16T05:10:20.009Z,98441.25
2022-11-16T05:12:49.885Z,98436.34
2022-11-16T05:15:19.745Z,98436.97
2022-11-16T05:17:48.386Z,98435.72
2022-11-16T05:20:38.279Z,98437.97
2022-11-16T05:23:26.288Z,98431.63
2022-11-16T05:25:53.675Z,98438.19
2022-11-16T05:28:22.439Z,98442.66
2022-11-16T05:30:49.960Z,98442.25
2022-11-16T05:33:22.119Z,98434.28
2022-11-16T05:35:50.647Z,98439.16
2022-11-16T05:38:18.761Z,98439.47
2022-11-16T05:40:49.309Z,98447.31
2022-11-16T05:43:17.900Z,98449.63
2022-11-16T05:45:56.225Z,98446.50
2022-11-16T05:48:23.896Z,98437.13
2022-11-16T05:50:51.336Z,98434.88
2022-11-16T05:53:24.352Z,98442.66
2022-11-16T05:55:52.085Z,98441.84
2022-11-16T05:58:20.784Z,98437.94
2022-11-16T06:00:50.960Z,98445.53
2022-11-16T06:03:21.237Z,98446.38
2022-11-16T06:05:53.041Z,98439.84
2022-11-16T06:08:20.855Z,98443.91
2022-11-16T06:10:51.336Z,98447.00
2022-11-16T06:13:18.823Z,98450.66
2022-11-16T06:15:53.165Z,98449.84
2022-11-16T06:18:22.128Z,98454.53
2022-11-16T06:20:50.692Z,98458.22
2022-11-16T06:23:21.120Z,98461.50
2022-11-16T06:25:53.853Z,98472.34
2022-11-16T06:28:21.647Z,98459.88
2022-11-16T06:30:49.647Z,98466.44
2022-11-16T06:33:17.134Z,98473.75
2022-11-16T06:35:46.207Z,98464.78
2022-11-16T06:38:19.320Z,98472.75
2022-11-16T06:40:51.842Z,98468.84
2022-11-16T06:43:19.988Z,98467.84
2022-11-16T06:45:50.176Z,98479.69
2022-11-16T06:48:17.718Z,98489.28
2022-11-16T06:50:48.088Z,98485.59
2022-11-16T06:53:17.822Z,98487.69
2022-11-16T06:55:46.285Z,98487.88
2022-11-16T06:58:14.151Z,98488.50
2022-11-16T07:00:43.023Z,98498.31
2022-11-16T07:03:11.765Z,98504.44
2022-11-16T07:05:41.703Z,98501.81
2022-11-16T07:08:14.766Z,98516.91
2022-11-16T07:10:42.224Z,98528.16
2022-11-16T07:13:09.677Z,98520.81
2022-11-16T07:15:39.568Z,98520.16
2022-11-16T07:18:09.088Z,98516.50
2022-11-16T07:20:39.191Z,98513.44
2022-11-16T07:23:11.370Z,98520.38
2022-11-16T07:25:46.628Z,98518.53
2022-11-16T07:28:15.721Z,98534.06
2022-11-16T07:30:44.595Z,98524.88
2022-11-16T07:33:16.969Z,98530.34
2022-11-16T07:36:03.484Z,98537.25
2022-11-16T07:38:32.212Z,98542.91
2022-11-16T07:41:03.163Z,98537.81
2022-11-16T07:43:35.006Z,98545.97
2022-11-16T07:46:45.252Z,98541.50
2022-11-16T07:49:01.107Z,98544.59
2022-11-16T07:51:51.957Z,98547.41
2022-11-16T07:54:33.647Z,98550.63
2022-11-16T07:57:02.609Z,98556.84
2022-11-16T07:59:30.125Z,98559.53
2022-11-16T08:01:59.531Z,98564.00
2022-11-16T08:04:28.349Z,98566.03
2022-11-16T08:06:56.133Z,98563.41
2022-11-16T08:09:24.119Z,98574.41
2022-11-16T08:11:52.234Z,98580.31
2022-11-16T08:14:21.561Z,98573.16
2022-11-16T08:16:50.799Z,98575.66
2022-11-16T08:19:18.857Z,98572.59
2022-11-16T08:21:49.643Z,98584.03
2022-11-16T08:24:18.132Z,98581.78
2022-11-16T08:26:46.070Z,98575.47
2022-11-16T08:29:15.787Z,98577.69
2022-11-16T08:31:50.995Z,98583.22
2022-11-16T08:34:21.216Z,98589.94
2022-11-16T08:36:52.247Z,98583.97
2022-11-16T08:39:25.653Z,98584.53
2022-11-16T08:41:53.217Z,98582.19
2022-11-16T08:44:20.903Z,98578.31
2022-11-16T08:46:53.980Z,98577.66
2022-11-16T08:49:29.783Z,98578.91
2022-11-16T08:51:57.991Z,98585.44
2022-11-16T08:54:25.527Z,98590.25
2022-11-16T08:56:53.291Z,98583.34
2022-11-16T08:59:20.780Z,98587.97
2022-11-16T09:01:51.591Z,98597.38
2022-11-16T09:04:20.411Z,98587.56
2022-11-16T09:06:47.973Z,98583.38
2022-11-16T09:09:15.591Z,98587.66
2022-11-16T09:11:43.048Z,98578.03
2022-11-16T09:14:10.614Z,98580.69
2022-11-16T09:16:38.032Z,98583.50
2022-11-16T09:19:05.451Z,98586.22
2022-11-16T09:21:36.346Z,98593.34
2022-11-16T09:24:04.145Z,98595.78
2022-11-16T09:26:31.609Z,98597.75
2022-11-16T09:29:00.160Z,98596.78
2022-11-16T09:31:28.640Z,98601.28
2022-11-16T09:33:58.169Z,98608.94
2022-11-16T09:36:26.276Z,98614.06
2022-11-16T09:39:29.590Z,98606.75
2022-11-16T09:41:59.325Z,98611.03
2022-11-16T09:45:00.092Z,98619.25
2022-11-16T09:47:42.945Z,98617.13
2022-11-16T09:50:20.353Z,98609.53
2022-11-16T09:52:49.336Z,98613.06
2022-11-16T09:55:25.717Z,98625.06
2022-11-16T09:57:56.194Z,98621.34
2022-11-16T10:00:24.116Z,98623.22
2022-11-16T10:02:59.151Z,98629.78
2022-11-16T10:05:29.677Z,98631.50
2022-11-16T10:08:01.471Z,98628.91
2022-11-16T10:10:35.757Z,98630.94
2022-11-16T10:13:09.419Z,98627.41
2022-11-16T10:15:44.129Z,98628.88
2022-11-16T10:18:21.427Z,98628.47
2022-11-16T10:20:57.956Z,98626.50
2022-11-16T10:23:35.937Z,98618.31
2022-11-16T10:26:13.303Z,98626.47
2022-11-16T10:29:15.551Z,98628.75
2022-11-16T10:31:54.002Z,98619.88
2022-11-16T10:34:23.908Z,98607.13
2022-11-16T10:36:51.495Z,98609.19
2022-11-16T10:39:20.393Z,98611.34
2022-11-16T10:41:50.845Z,98609.16
2022-11-16T10:44:21.493Z,98609.50
2022-11-16T10:46:57.204Z,98610.09
2022-11-16T10:49:29.924Z,98606.72
2022-11-16T10:51:57.365Z,98609.28
2022-11-16T10:54:24.815Z,98597.81
2022-11-16T10:57:00.897Z,98600.53
2022-11-16T10:59:39.767Z,98599.66
2022-11-16T11:02:29.018Z,98597.44
2022-11-16T11:05:05.211Z,98594.97
2022-11-16T11:07:34.485Z,98607.72
2022-11-16T11:10:02.137Z,98601.63
2022-11-16T11:12:40.194Z,98611.38
2022-11-16T11:15:26.138Z,98618.25
2022-11-16T11:18:13.168Z,98617.06
2022-11-16T11:20:45.101Z,98609.31
2022-11-16T11:23:15.858Z,98618.03
2022-11-16T11:25:50.791Z,98611.16
2022-11-16T11:28:22.771Z,98618.78
2022-11-16T11:31:00.091Z,98612.66
2022-11-16T11:33:30.352Z,98612.34
2022-11-16T11:36:01.796Z,98614.09
2022-11-16T11:38:30.910Z,98609.94
2022-11-16T11:41:00.401Z,98609.44
2022-11-16T11:43:29.965Z,98614.97
2022-11-16T11:46:05.217Z,98608.22
2022-11-16T11:48:38.319Z,98613.94
2022-11-16T11:51:13.039Z,98613.16
2022-11-16T11:53:46.596Z,98602.91
2022-11-16T11:56:15.178Z,98607.66
2022-11-16T11:58:44.470Z,98603.97
2022-11-16T12:01:41.915Z,98603.84
2022-11-16T12:04:26.687Z,98604.56
2022-11-16T12:07:00.752Z,98600.22
2022-11-16T12:09:37.424Z,98597.09
2022-11-16T12:12:16.040Z,98594.25
2022-11-16T12:14:57.407Z,98596.25
2022-11-16T12:17:28.860Z,98606.31
2022-11-16T12:20:06.924Z,98607.00
2022-11-16T12:22:46.288Z,98606.66
2022-11-16T12:25:21.812Z,98597.63
2022-11-16T12:27:55.063Z,98597.53
2022-11-16T12:30:24.844Z,98600.13
2022-11-16T12:33:00.823Z,98603.16
2022-11-16T12:35:42.628Z,98593.09
2022-11-16T12:38:26.056Z,98597.47
2022-11-16T12:41:04.954Z,98598.06
2022-11-16T12:43:37.587Z,98587.75
2022-11-16T12:46:12.651Z,98594.63
2022-11-16T12:49:08.621Z,98593.09
2022-11-16T12:51:46.427Z,98591.25
2022-11-16T12:54:32.335Z,98585.00
2022-11-16T12:57:04.951Z,98580.13
2022-11-16T12:59:46.369Z,98577.78
2022-11-16T13:02:25.092Z,98581.38
2022-11-16T13:04:57.452Z,98576.50
2022-11-16T13:07:28.583Z,98571.63
2022-11-16T13:09:58.425Z,98575.72
2022-11-16T13:12:26.876Z,98565.66
2022-11-16T13:14:55.942Z,98565.34
2022-11-16T13:17:26.745Z,98562.50
2022-11-16T13:20:11.691Z,98558.44
2022-11-16T13:22:44.810Z,98563.81
2022-11-16T13:25:19.536Z,98553.28
2022-11-16T13:27:49.327Z,98557.53
2022-11-16T13:30:19.456Z,98552.59
2022-11-16T13:32:59.128Z,98543.63
2022-11-16T13:35:26.981Z,98548.16
2022-11-16T13:37:54.451Z,98548.41
2022-11-16T13:40:30.333Z,98544.13
2022-11-16T13:43:18.693Z,98549.63
2022-11-16T13:45:54.260Z,98551.25
2022-11-16T13:48:25.187Z,98542.00
2022-11-16T13:50:54.552Z,98542.13
2022-11-16T13:56:15.902Z,98537.22
2022-11-16T13:58:46.096Z,98530.22
2022-11-16T14:01:15.178Z,98534.06
2022-11-16T14:03:44.655Z,98540.91
2022-11-16T14:06:45.747Z,98535.56
2022-11-16T14:09:44.209Z,98528.84
2022-11-16T14:12:44.339Z,98530.34
2022-11-16T14:15:15.775Z,98529.28
2022-11-16T14:17:54.207Z,98524.66
2022-11-16T14:20:43.503Z,98522.56
2022-11-16T14:23:17.648Z,98526.72
2022-11-16T14:25:50.539Z,98532.44
2022-11-16T14:28:35.198Z,98532.19
2022-11-16T14:31:13.917Z,98536.34
2022-11-16T14:33:41.408Z,98537.88
2022-11-16T14:36:11.150Z,98543.31
2022-11-16T14:38:39.727Z,98536.03
2022-11-16T14:41:10.888Z,98535.09
2022-11-16T14:43:41.220Z,98525.31
2022-11-16T14:46:10.514Z,98532.69
2022-11-16T14:48:44.808Z,98532.88
2022-11-16T14:51:15.850Z,98536.16
2022-11-16T14:53:48.547Z,98528.78
2022-11-16T14:56:18.792Z,98537.59
2022-11-16T14:58:54.152Z,98529.59
2022-11-16T15:01:24.580Z,98540.00
2022-11-16T15:03:55.807Z,98531.41
2022-11-16T15:06:26.033Z,98535.03
2022-11-16T15:08:55.472Z,98530.59
2022-11-16T15:11:25.885Z,98529.81
2022-11-16T15:13:54.856Z,98527.22
2022-11-16T15:16:22.325Z,98529.53
2022-11-16T15:18:58.049Z,98527.06
2022-11-16T15:21:27.355Z,98526.19
2022-11-16T15:24:23.367Z,98530.31
2022-11-16T15:26:42.252Z,98542.50
2022-11-16T15:29:15.495Z,98533.25
2022-11-16T15:31:43.204Z,98543.91
2022-11-16T15:34:15.128Z,98542.00
2022-11-16T15:36:44.055Z,98539.81
2022-11-16T15:39:14.015Z,98535.31
2022-11-16T15:41:41.759Z,98540.44
2022-11-16T15:44:15.041Z,98541.28
2022-11-16T15:46:44.039Z,98534.13
2022-11-16T15:49:20.636Z,98535.75
2022-11-16T15:51:49.346Z,98538.41
2022-11-16T15:54:23.600Z,98537.34
2022-11-16T15:56:51.168Z,98539.38
2022-11-16T15:59:26.862Z,98536.91
2022-11-16T16:01:54.627Z,98537.31
2022-11-16T16:04:22.423Z,98529.34
2022-11-16T16:06:52.658Z,98524.78
2022-11-16T16:09:26.197Z,98535.75
2022-11-16T16:11:54.055Z,98526.91
2022-11-16T16:14:26.695Z,98522.13
2022-11-16T16:16:54.875Z,98525.38
2022-11-16T16:19:34.440Z,98520.69
2022-11-16T16:22:04.268Z,98522.91
2022-11-16T16:24:37.904Z,98529.78
2022-11-16T16:27:11.783Z,98519.31
2022-11-16T16:29:39.235Z,98516.81
2022-11-16T16:32:06.843Z,98521.19
2022-11-16T16:34:37.746Z,98521.78
2022-11-16T16:37:10.135Z,98526.13
2022-11-16T16:39:38.601Z,98523.00
2022-11-16T16:42:07.087Z,98513.34
2022-11-16T16:44:34.533Z,98509.56
2022-11-16T16:47:01.949Z,98507.09
2022-11-16T16:49:29.405Z,98503.09
2022-11-16T16:51:56.884Z,98507.53
2022-11-16T16:54:25.853Z,98502.03
2022-11-16T16:56:53.334Z,98508.50
2022-11-16T16:59:20.797Z,98502.97
2022-11-16T17:01:48.295Z,98500.00
2022-11-16T17:04:15.702Z,98494.28
2022-11-16T17:06:46.426Z,98489.41
2022-11-16T17:09:14.678Z,98485.22
2022-11-16T17:11:43.428Z,98485.22
2022-11-16T17:14:11.167Z,98487.34
2022-11-16T17:16:38.801Z,98489.81
2022-11-16T17:19:06.384Z,98485.19
2022-11-16T17:21:34.061Z,98481.56
2022-11-16T17:24:01.523Z,98484.41
2022-11-16T17:26:29.424Z,98483.34
2022-11-16T17:28:58.847Z,98485.16
2022-11-16T17:31:27.803Z,98489.38
2022-11-16T17:33:57.283Z,98489.41
2022-11-16T17:36:24.830Z,98484.66
2022-11-16T17:38:52.288Z,98479.72
2022-11-16T17:41:21.806Z,98481.19
2022-11-16T17:43:49.455Z,98483.19
2022-11-16T17:46:19.900Z,98481.06
2022-11-16T17:48:48.380Z,98485.41
2022-11-16T17:51:17.918Z,98471.56
2022-11-16T17:53:45.494Z,98465.25
2022-11-16T17:56:14.156Z,98471.19
2022-11-16T17:58:42.053Z,98470.97
2022-11-16T18:01:09.506Z,98468.91
2022-11-16T18:03:38.954Z,98469.22
2022-11-16T18:06:08.700Z,98467.44
2022-11-16T18:08:37.080Z,98472.78
2022-11-16T18:11:06.269Z,98466.31
2022-11-16T18:13:34.623Z,98471.66
2022-11-16T18:16:06.590Z,98466.28
2022-11-16T18:18:34.405Z,98462.69
2022-11-16T18:21:03.238Z,98466.66
2022-11-16T18:23:30.666Z,98463.59
2022-11-16T18:25:58.108Z,98458.63
2022-11-16T18:28:25.618Z,98457.59
2022-11-16T18:30:53.075Z,98455.63
2022-11-16T18:33:20.615Z,98461.34
2022-11-16T18:35:48.032Z,98456.91
2022-11-16T18:38:16.800Z,98458.38
2022-11-16T18:40:44.262Z,98467.00
2022-11-16T18:43:12.755Z,98465.13
2022-11-16T18:45:40.194Z,98454.81
2022-11-16T18:48:08.059Z,98452.72
2022-11-16T18:50:35.507Z,98452.47
2022-11-16T18:53:02.948Z,98453.50
2022-11-16T18:55:31.749Z,98450.72
2022-11-16T18:57:59.307Z,98446.34
2022-11-16T19:00:26.800Z,98453.50
2022-11-16T19:02:54.270Z,98448.91
2022-11-16T19:05:21.802Z,98457.28
2022-11-16T19:07:49.287Z,98454.31
2022-11-16T19:10:16.853Z,98452.94
2022-11-16T19:12:45.627Z,98444.22
2022-11-16T19:15:13.075Z,98441.59
2022-11-16T19:17:59.664Z,98441.06
2022-11-16T19:20:28.200Z,98441.75
2022-11-16T19:22:55.667Z,98438.72
2022-11-16T19:25:23.633Z,98433.41
2022-11-16T19:27:52.939Z,98431.81
2022-11-16T19:30:20.687Z,98431.97
2022-11-16T19:32:48.208Z,98427.31
2022-11-16T19:35:16.173Z,98432.19
2022-11-16T19:37:43.804Z,98435.84
2022-11-16T19:40:12.343Z,98430.72
2022-11-16T19:42:40.719Z,98419.13
2022-11-16T19:45:11.071Z,98418.38
2022-11-16T19:47:39.413Z,98418.00
2022-11-16T19:50:10.410Z,98416.59
2022-11-16T19:52:39.453Z,98429.91
2022-11-16T19:55:08.589Z,98439.16
2022-11-16T19:57:37.059Z,98441.47
2022-11-16T20:00:06.364Z,98426.66
2022-11-16T20:02:36.612Z,98431.06
2022-11-16T20:05:05.393Z,98437.63
2022-11-16T20:07:38.290Z,98427.44
2022-11-16T20:10:07.866Z,98427.06
2022-11-16T20:12:36.255Z,98429.09
2022-11-16T20:15:05.575Z,98420.59
2022-11-16T20:17:35.719Z,98412.63
2022-11-16T20:20:04.244Z,98415.69
2022-11-16T20:22:32.972Z,98407.19
2022-11-16T20:25:02.218Z,98399.66
2022-11-16T20:27:30.835Z,98394.16
2022-11-16T20:29:59.280Z,98391.53
2022-11-16T20:32:28.303Z,98399.91
2022-11-16T20:34:58.183Z,98400.56
2022-11-16T20:37:26.494Z,98401.13
2022-11-16T20:39:57.194Z,98396.88
2022-11-16T20:42:25.246Z,98404.63
2022-11-16T20:44:53.124Z,98390.63
2022-11-16T20:47:20.705Z,98389.97
2022-11-16T20:49:48.344Z,98391.00
2022-11-16T20:52:18.741Z,98394.06
2022-11-16T20:54:46.265Z,98397.50
2022-11-16T20:57:13.744Z,98387.97
2022-11-16T20:59:41.259Z,98383.66
2022-11-16T21:02:10.575Z,98387.16
2022-11-16T21:04:38.028Z,98395.91
2022-11-16T21:07:05.504Z,98394.28
2022-11-16T21:09:54.283Z,98393.88
2022-11-16T21:12:42.748Z,98381.03
2022-11-16T21:15:10.815Z,98374.31
2022-11-16T21:17:38.219Z,98372.28
2022-11-16T21:20:26.269Z,98358.59
2022-11-16T21:22:53.712Z,98361.22
2022-11-16T21:25:22.519Z,98361.63
2022-11-16T21:27:49.909Z,98346.78
2022-11-16T21:30:17.706Z,98356.97
2022-11-16T21:32:45.127Z,98360.84
2022-11-16T21:35:12.659Z,98355.34
2022-11-16T21:37:40.080Z,98362.47
2022-11-16T21:40:08.762Z,98353.69
2022-11-16T21:42:37.527Z,98358.00
2022-11-16T21:45:05.491Z,98356.34
2022-11-16T21:47:32.915Z,98346.13
2022-11-16T21:50:30.089Z,98348.59
2022-11-16T21:52:47.879Z,98333.72
2022-11-16T21:55:15.302Z,98332.09
2022-11-16T21:57:44.068Z,98327.81
2022-11-16T22:00:12.732Z,98321.28
2022-11-16T22:02:40.127Z,98325.56
2022-11-16T22:05:26.859Z,98314.75
2022-11-16T22:07:54.423Z,98310.91
2022-11-16T22:10:22.232Z,98306.81
2022-11-16T22:12:50.980Z,98302.97
2022-11-16T22:15:18.395Z,98303.34
2022-11-16T22:17:46.134Z,98294.81
2022-11-16T22:20:13.730Z,98293.16
2022-11-16T22:22:41.167Z,98295.03
2022-11-16T22:25:09.185Z,98299.50
2022-11-16T22:27:52.445Z,98298.66
2022-11-16T22:30:25.635Z,98290.66
2022-11-16T22:32:54.033Z,98295.81
2022-11-16T22:35:21.447Z,98279.28
2022-11-16T22:37:48.832Z,98278.06
2022-11-16T22:40:17.899Z,98279.94
2022-11-16T22:42:45.497Z,98264.44
2022-11-16T22:45:13.004Z,98262.75
2022-11-16T22:47:41.804Z,98263.41
2022-11-16T22:50:09.851Z,98251.97
2022-11-16T22:52:37.260Z,98245.88
2022-11-16T22:55:05.273Z,98241.97
2022-11-16T22:57:32.677Z,98241.97
2022-11-16T23:00:00.083Z,98251.75
2022-11-16T23:02:27.480Z,98238.28
2022-11-16T23:04:56.196Z,98239.34
2022-11-16T23:07:23.730Z,98235.25
2022-11-16T23:09:51.187Z,98230.16
2022-11-16T23:12:36.243Z,98223.44
2022-11-16T23:15:21.226Z,98217.94
2022-11-16T23:17:48.643Z,98211.22
2022-11-16T23:20:34.972Z,98211.41
2022-11-16T23:23:20.003Z,98224.03
2022-11-16T23:26:05.689Z,98216.09
2022-11-16T23:28:33.193Z,98204.09
2022-11-16T23:31:00.613Z,98203.50
2022-11-16T23:33:42.110Z,98201.03
2022-11-16T23:36:11.088Z,98190.03
2022-11-16T23:38:38.536Z,98171.09
2022-11-16T23:41:20.127Z,98182.50
2022-11-16T23:43:59.941Z,98175.38
2022-11-16T23:46:28.254Z,98168.44
2022-11-16T23:48:55.835Z,98162.34
2022-11-16T23:51:24.918Z,98166.63
2022-11-16T23:53:52.570Z,98158.47
2022-11-16T23:56:20.753Z,98150.53
2022-11-16T23:58:48.726Z,98140.34
